Time;durP1;ratioP1;P1;durP2;ratioP2;P2;SDS_P1;SDS_P2;PMS_P1;PMS_P2;Temp;Humidity;BMP_temperature;BMP_pressure;BME280_temperature;BME280_humidity;BME280_pressure;Samples;Min_cycle;Max_cycle;Signal;HPM_P1;HPM_P2
2021/07/16 00:00:53;;;;;;;6.00;4.37;;;17.90;99.90;;;18.84;100.00;98268.25;5045630;28;20480;-80
2021/07/16 00:03:24;;;;;;;6.70;4.20;;;18.00;99.90;;;18.81;100.00;98266.84;5044638;28;20559;-80
2021/07/16 00:05:56;;;;;;;7.13;5.37;;;18.00;99.90;;;18.71;100.00;98263.22;5045422;28;20453;-80
2021/07/16 00:08:25;;;;;;;11.70;4.40;;;17.80;99.90;;;18.61;100.00;98261.13;5046861;28;20461;-80
2021/07/16 00:10:54;;;;;;;8.13;3.83;;;17.70;99.90;;;18.52;100.00;98263.34;5046618;28;20831;-80
2021/07/16 00:13:24;;;;;;;7.33;4.20;;;17.60;99.90;;;18.54;100.00;98263.91;5046475;28;20544;-80
2021/07/16 00:15:54;;;;;;;7.67;4.07;;;17.50;99.90;;;18.58;100.00;98265.06;5044825;28;20453;-80
2021/07/16 00:18:24;;;;;;;11.90;4.77;;;17.60;99.90;;;18.44;100.00;98258.38;5043842;28;20469;-80
2021/07/16 00:20:55;;;;;;;5.13;4.10;;;17.50;99.90;;;18.46;100.00;98258.97;5044772;28;20497;-80
2021/07/16 00:23:24;;;;;;;9.50;4.73;;;17.40;99.90;;;18.28;100.00;98253.78;5045144;28;20962;-80
2021/07/16 00:25:54;;;;;;;8.57;4.30;;;17.30;99.90;;;18.23;100.00;98245.72;5044862;28;20588;-80
2021/07/16 00:28:24;;;;;;;11.33;5.30;;;17.30;99.90;;;18.35;100.00;98251.00;5047315;28;20587;-79
2021/07/16 00:30:53;;;;;;;13.30;4.67;;;17.40;99.90;;;18.26;100.00;98252.38;5044179;28;21072;-79
2021/07/16 00:33:22;;;;;;;8.57;4.60;;;17.30;99.90;;;18.17;100.00;98246.63;5040171;28;20476;-80
2021/07/16 00:35:51;;;;;;;12.67;4.93;;;17.10;99.90;;;18.19;100.00;98249.84;5051014;28;20472;-80
2021/07/16 00:38:23;;;;;;;16.33;6.97;;;17.20;99.90;;;18.26;100.00;98255.84;5042733;28;20456;-80
2021/07/16 00:40:52;;;;;;;19.43;4.77;;;17.30;99.90;;;18.28;100.00;98243.19;5046813;28;20461;-80
2021/07/16 00:43:21;;;;;;;8.90;4.70;;;17.30;99.90;;;18.27;100.00;98246.88;5041939;28;20485;-79
2021/07/16 00:45:51;;;;;;;6.93;4.50;;;17.30;99.90;;;18.23;100.00;98253.66;5041559;28;20832;-79
2021/07/16 00:48:21;;;;;;;5.07;4.57;;;17.20;99.90;;;18.21;100.00;98253.09;5043141;28;20499;-79
2021/07/16 00:50:49;;;;;;;10.50;4.80;;;17.30;99.90;;;18.25;100.00;98254.25;5044826;28;20479;-80
2021/07/16 00:53:22;;;;;;;7.93;4.97;;;17.30;99.90;;;18.12;100.00;98257.09;5041719;28;20469;-79
2021/07/16 00:55:51;;;;;;;8.90;5.63;;;17.10;99.90;;;18.12;100.00;98259.75;5043041;28;20598;-80
2021/07/16 00:58:21;;;;;;;9.37;4.63;;;17.10;99.90;;;18.06;100.00;98260.66;5040004;28;20651;-79
2021/07/16 01:00:50;;;;;;;19.40;5.93;;;17.00;99.90;;;18.00;100.00;98262.41;5044154;28;20454;-80
2021/07/16 01:03:19;;;;;;;12.67;5.40;;;17.00;99.90;;;18.00;100.00;98256.31;5047338;28;20994;-79
2021/07/16 01:05:48;;;;;;;10.47;5.70;;;17.00;99.90;;;17.89;100.00;98262.38;5044882;28;20813;-79
2021/07/16 01:08:19;;;;;;;13.10;7.07;;;16.90;99.90;;;17.98;100.00;98268.94;5038565;28;21011;-79
2021/07/16 01:10:51;;;;;;;11.43;6.77;;;17.00;99.90;;;18.06;100.00;98269.41;5042466;28;20469;-79
2021/07/16 01:13:20;;;;;;;10.23;6.80;;;17.00;99.90;;;18.05;100.00;98259.84;5044611;28;20469;-79
2021/07/16 01:15:51;;;;;;;9.30;6.50;;;17.00;99.90;;;18.07;100.00;98251.69;5043736;28;20952;-79
2021/07/16 01:18:22;;;;;;;9.70;6.30;;;17.10;99.90;;;18.10;100.00;98256.53;5043020;28;20555;-80
2021/07/16 01:20:51;;;;;;;15.30;6.57;;;17.10;99.90;;;18.00;100.00;98262.41;5042095;28;20796;-79
2021/07/16 01:23:24;;;;;;;8.87;6.40;;;17.00;99.90;;;18.03;100.00;98255.84;5045772;28;20504;-79
2021/07/16 01:25:55;;;;;;;19.00;6.37;;;17.00;99.90;;;18.01;100.00;98252.63;5044233;28;20576;-79
2021/07/16 01:28:25;;;;;;;11.07;5.90;;;17.10;99.90;;;17.90;100.00;98261.34;5044658;28;20893;-79
2021/07/16 01:30:55;;;;;;;15.53;5.93;;;16.90;99.90;;;17.94;100.00;98252.75;5043338;28;20747;-80
2021/07/16 01:33:26;;;;;;;11.10;5.90;;;16.90;99.90;;;17.94;100.00;98259.88;5043942;28;20461;-81
2021/07/16 01:35:55;;;;;;;17.27;7.30;;;16.90;99.90;;;17.72;100.00;98272.00;5045237;28;20465;-80
2021/07/16 01:38:26;;;;;;;12.60;5.93;;;16.70;99.90;;;17.82;100.00;98269.63;5040587;28;20523;-79
2021/07/16 01:40:56;;;;;;;14.30;6.70;;;16.80;99.90;;;17.83;100.00;98273.88;5043162;28;20464;-79
2021/07/16 01:43:26;;;;;;;12.13;6.33;;;16.80;99.90;;;17.83;100.00;98272.03;5042854;28;20457;-80
2021/07/16 01:45:57;;;;;;;9.60;6.60;;;16.80;99.90;;;17.82;100.00;98275.72;5042389;28;20491;-79
2021/07/16 01:48:27;;;;;;;11.03;6.47;;;16.80;99.90;;;17.82;100.00;98274.91;5039540;28;20497;-79
2021/07/16 01:50:57;;;;;;;22.43;6.80;;;16.80;99.90;;;17.79;100.00;98276.19;5041118;28;20487;-80
2021/07/16 01:53:29;;;;;;;13.13;8.10;;;16.80;99.90;;;17.80;100.00;98277.00;5042799;28;20568;-80
2021/07/16 01:55:59;;;;;;;15.10;6.40;;;16.80;99.90;;;17.74;100.00;98277.88;5046705;28;20535;-80
2021/07/16 01:58:28;;;;;;;17.80;7.50;;;16.70;99.90;;;17.76;100.00;98283.75;5045382;28;20465;-80
2021/07/16 02:00:59;;;;;;;11.97;7.27;;;16.80;99.90;;;17.78;100.00;98289.63;5044362;28;20472;-79
2021/07/16 02:03:28;;;;;;;9.60;6.77;;;16.80;99.90;;;17.83;100.00;98279.16;5042033;28;20575;-79
2021/07/16 02:05:59;;;;;;;11.07;7.30;;;16.90;99.90;;;17.74;100.00;98285.81;5046479;28;20449;-79
2021/07/16 02:08:29;;;;;;;22.10;7.20;;;16.70;99.90;;;17.78;100.00;98284.31;5040840;28;20496;-80
2021/07/16 02:10:59;;;;;;;16.50;7.37;;;16.70;99.90;;;17.84;100.00;98273.63;5042684;28;20457;-79
2021/07/16 02:13:28;;;;;;;8.67;6.60;;;16.80;99.90;;;17.80;100.00;98277.78;5039470;28;20465;-79
2021/07/16 02:15:57;;;;;;;11.43;6.50;;;16.90;99.90;;;17.81;100.00;98284.69;5041406;28;20864;-79
2021/07/16 02:18:27;;;;;;;14.43;7.83;;;16.90;99.90;;;17.83;100.00;98281.81;5045688;28;20516;-79
2021/07/16 02:20:56;;;;;;;18.47;7.50;;;16.90;99.90;;;17.78;100.00;98289.63;5044778;28;20472;-80
2021/07/16 02:23:30;;;;;;;17.03;6.47;;;16.90;99.90;;;17.72;100.00;98288.69;5043119;28;20455;-80
2021/07/16 02:26:00;;;;;;;23.70;7.53;;;16.80;99.90;;;17.74;100.00;98288.44;5044975;28;20469;-80
2021/07/16 02:28:33;;;;;;;17.20;7.10;;;16.70;99.90;;;17.67;100.00;98279.84;5048186;28;20579;-80
2021/07/16 02:31:04;;;;;;;8.97;7.10;;;16.70;99.90;;;17.64;100.00;98280.25;5047923;28;20461;-79
2021/07/16 02:33:34;;;;;;;13.83;6.60;;;16.70;99.90;;;17.52;100.00;98282.88;5046548;28;21950;-80
2021/07/16 02:36:08;;;;;;;11.73;7.90;;;16.50;99.90;;;17.58;100.00;98285.44;5046912;28;20488;-80
2021/07/16 02:38:40;;;;;;;11.53;8.40;;;16.60;99.90;;;17.68;100.00;98289.38;5049684;28;20457;-80
2021/07/16 02:41:10;;;;;;;13.33;8.37;;;16.70;99.90;;;17.71;100.00;98283.63;5047539;28;20879;-80
2021/07/16 02:43:40;;;;;;;11.33;8.67;;;16.70;99.90;;;17.75;100.00;98282.13;5048370;28;20464;-80
2021/07/16 02:46:09;;;;;;;18.17;9.27;;;16.70;99.90;;;17.77;100.00;98282.72;5046585;28;20481;-79
2021/07/16 02:48:41;;;;;;;19.10;9.27;;;16.80;99.90;;;17.76;100.00;98275.81;5049806;28;20592;-80
2021/07/16 02:51:11;;;;;;;15.10;7.27;;;16.80;99.90;;;17.70;100.00;98282.81;5045361;28;20469;-79
2021/07/16 02:53:43;;;;;;;16.33;8.63;;;16.70;99.90;;;17.75;100.00;98279.50;5047773;28;20456;-79
2021/07/16 02:56:13;;;;;;;14.47;7.80;;;16.80;99.90;;;17.79;100.00;98275.38;5047687;28;20455;-79
2021/07/16 02:58:43;;;;;;;15.53;8.37;;;16.80;99.90;;;17.80;100.00;98282.28;5046411;28;20469;-79
2021/07/16 03:01:11;;;;;;;14.73;8.23;;;16.90;99.90;;;17.81;100.00;98274.09;5045916;28;20484;-79
2021/07/16 03:03:41;;;;;;;16.73;8.30;;;16.90;99.90;;;17.80;100.00;98277.00;5046179;28;20538;-79
2021/07/16 03:06:11;;;;;;;17.67;8.83;;;16.90;99.90;;;17.71;100.00;98281.78;5047362;28;20998;-79
2021/07/16 03:08:44;;;;;;;17.40;8.77;;;16.80;99.90;;;17.74;100.00;98288.44;5045447;28;20488;-79
2021/07/16 03:11:13;;;;;;;21.53;8.47;;;16.90;99.90;;;17.74;100.00;98281.31;5045042;28;20514;-79
2021/07/16 03:13:43;;;;;;;19.63;9.03;;;16.80;99.90;;;17.73;100.00;98286.84;5044963;28;20522;-79
2021/07/16 03:16:12;;;;;;;12.30;8.60;;;16.90;99.90;;;17.71;100.00;98284.44;5045765;28;20496;-79
2021/07/16 03:18:42;;;;;;;13.10;8.87;;;16.90;99.90;;;17.72;100.00;98286.06;5049000;28;20445;-79
2021/07/16 03:21:11;;;;;;;13.13;9.17;;;16.80;99.90;;;17.72;100.00;98277.31;5044480;28;20952;-79
2021/07/16 03:23:42;;;;;;;11.33;8.67;;;16.80;99.90;;;17.70;100.00;98282.03;5045595;28;20468;-79
2021/07/16 03:26:11;;;;;;;13.53;8.80;;;16.80;99.90;;;17.69;100.00;98285.69;5048044;28;20473;-79
2021/07/16 03:28:40;;;;;;;12.83;9.20;;;16.80;99.90;;;17.71;100.00;98288.91;5047776;28;20484;-79
2021/07/16 03:31:10;;;;;;;16.73;8.87;;;16.80;99.90;;;17.69;100.00;98291.78;5046877;28;20491;-79
2021/07/16 03:33:40;;;;;;;37.77;10.40;;;16.70;99.90;;;17.69;100.00;98291.00;5044517;28;20455;-79
2021/07/16 03:36:10;;;;;;;13.50;10.00;;;16.80;99.90;;;17.66;100.00;98291.44;5044153;28;21118;-79
2021/07/16 03:38:39;;;;;;;14.73;9.97;;;16.70;99.90;;;17.63;100.00;98291.91;5045596;28;20467;-79
2021/07/16 03:41:11;;;;;;;26.10;10.00;;;16.60;99.90;;;17.67;100.00;98298.34;5043998;28;20527;-85
2021/07/16 03:43:41;;;;;;;19.60;11.43;;;16.70;99.90;;;17.68;100.00;98305.22;5040616;28;20461;-81
2021/07/16 03:46:10;;;;;;;17.47;10.83;;;16.80;99.90;;;17.69;100.00;98306.84;5044645;28;20511;-79
2021/07/16 03:48:39;;;;;;;18.73;9.33;;;16.80;99.90;;;17.71;100.00;98310.88;5040829;28;20489;-79
2021/07/16 03:51:09;;;;;;;22.73;10.67;;;16.80;99.90;;;17.76;100.00;98311.03;5047884;28;20899;-79
2021/07/16 03:53:38;;;;;;;30.63;15.03;;;16.80;99.90;;;17.76;100.00;98307.56;5040474;28;20752;-79
2021/07/16 03:56:09;;;;;;;21.83;11.00;;;16.80;99.90;;;17.77;100.00;98311.84;5044277;28;20465;-79
2021/07/16 03:58:41;;;;;;;17.23;10.17;;;16.90;99.90;;;17.75;100.00;98317.34;5046017;28;20465;-79
2021/07/16 04:01:11;;;;;;;13.87;9.63;;;16.90;99.90;;;17.72;100.00;98311.69;5039942;28;20679;-79
2021/07/16 04:03:41;;;;;;;27.10;11.70;;;16.80;99.90;;;17.75;100.00;98322.63;5046705;28;20947;-79
2021/07/16 04:06:11;;;;;;;25.23;11.20;;;16.80;99.90;;;17.77;100.00;98317.13;5047511;28;20438;-79
2021/07/16 04:08:40;;;;;;;19.83;11.77;;;16.90;99.90;;;17.78;100.00;98318.72;5048644;28;21001;-79
2021/07/16 04:11:11;;;;;;;26.27;11.50;;;16.90;99.90;;;17.78;100.00;98319.53;5048540;28;20441;-79
2021/07/16 04:13:41;;;;;;;19.33;11.13;;;16.90;99.90;;;17.82;100.00;98327.81;5047909;28;20457;-79
2021/07/16 04:16:11;;;;;;;20.07;12.97;;;16.90;99.90;;;17.81;100.00;98321.72;5051577;28;20486;-79
2021/07/16 04:18:40;;;;;;;14.87;11.00;;;16.90;99.90;;;17.84;100.00;98320.47;5044602;28;20465;-79
2021/07/16 04:21:10;;;;;;;18.07;10.50;;;16.90;99.90;;;17.84;100.00;98323.13;5042513;28;20509;-84
2021/07/16 04:23:41;;;;;;;43.83;17.40;;;17.00;99.90;;;17.87;100.00;98317.38;5045938;28;20896;-79
2021/07/16 04:26:12;;;;;;;19.03;10.40;;;17.00;99.90;;;17.88;100.00;98316.31;5044363;28;20445;-79
2021/07/16 04:28:43;;;;;;;18.87;11.63;;;17.00;99.90;;;17.91;100.00;98326.47;5046884;28;20491;-80
2021/07/16 04:31:13;;;;;;;20.23;13.07;;;17.00;99.90;;;17.92;100.00;98328.06;5043387;28;20549;-79
2021/07/16 04:33:43;;;;;;;16.70;11.50;;;17.00;99.90;;;17.90;100.00;98324.88;5049215;28;20476;-81
2021/07/16 04:36:13;;;;;;;41.33;24.17;;;17.00;99.90;;;17.91;100.00;98326.47;5051188;28;20473;-79
2021/07/16 04:38:44;;;;;;;19.83;12.40;;;17.00;99.90;;;17.94;100.00;98326.03;5048828;28;20464;-80
2021/07/16 04:41:15;;;;;;;21.20;12.60;;;17.00;99.90;;;17.97;100.00;98334.31;5050668;28;20524;-80
2021/07/16 04:43:45;;;;;;;27.97;13.00;;;17.10;99.90;;;17.97;100.00;98330.84;5050124;28;20449;-80
2021/07/16 04:46:14;;;;;;;26.30;12.93;;;17.20;99.90;;;18.00;100.00;98335.69;5050409;28;20555;-79
2021/07/16 04:48:44;;;;;;;23.77;15.00;;;17.20;99.90;;;18.02;100.00;98339.72;5050165;28;20449;-80
2021/07/16 04:51:26;;;;;;;28.43;17.13;;;17.20;99.90;;;18.06;100.00;98335.59;5047167;28;20450;-80
2021/07/16 04:53:56;;;;;;;41.40;17.90;;;17.30;99.90;;;18.11;100.00;98340.22;5050554;28;20437;-80
2021/07/16 04:56:28;;;;;;;31.50;17.80;;;17.30;99.90;;;18.15;100.00;98336.09;5050448;28;20441;-80
2021/07/16 04:58:58;;;;;;;34.40;18.70;;;17.30;99.90;;;18.18;100.00;98337.47;5050405;28;20442;-80
2021/07/16 05:01:29;;;;;;;40.83;21.23;;;17.30;99.90;;;18.22;100.00;98342.06;5050383;28;20457;-80
2021/07/16 05:03:58;;;;;;;32.90;17.50;;;17.40;99.90;;;18.25;100.00;98344.25;5049314;28;20492;-80
2021/07/16 05:06:28;;;;;;;30.67;17.90;;;17.40;99.90;;;18.29;100.00;98350.69;5050084;28;20473;-80
2021/07/16 05:08:57;;;;;;;32.33;17.07;;;17.50;99.90;;;18.34;100.00;98348.19;5045662;28;20445;-80
2021/07/16 05:11:27;;;;;;;29.50;16.43;;;17.50;99.90;;;18.38;100.00;98348.53;5055279;28;20441;-80
2021/07/16 05:13:57;;;;;;;33.40;16.40;;;17.60;99.90;;;18.40;100.00;98355.19;5049892;28;20965;-80
2021/07/16 05:16:27;;;;;;;28.93;17.17;;;17.50;99.90;;;18.42;100.00;98350.50;5049794;28;20823;-79
2021/07/16 05:18:57;;;;;;;25.10;16.10;;;17.50;99.90;;;18.45;100.00;98350.03;5049817;28;20453;-80
2021/07/16 05:21:27;;;;;;;30.90;17.87;;;17.60;99.90;;;18.46;100.00;98364.91;5048860;28;20453;-80
2021/07/16 05:23:56;;;;;;;28.33;16.20;;;17.60;99.90;;;18.48;100.00;98364.66;5049778;28;20460;-80
2021/07/16 05:26:27;;;;;;;27.90;15.80;;;17.60;99.90;;;18.48;100.00;98364.66;5049810;28;20445;-80
2021/07/16 05:28:57;;;;;;;30.37;15.93;;;17.60;99.90;;;18.49;100.00;98375.03;5049673;28;20456;-79
2021/07/16 05:31:26;;;;;;;24.97;14.83;;;17.60;99.90;;;18.50;100.00;98374.00;5045851;28;20472;-80
2021/07/16 05:33:55;;;;;;;25.70;16.93;;;17.60;99.90;;;18.53;100.00;98376.19;5049007;28;21003;-80
2021/07/16 05:36:24;;;;;;;34.63;16.47;;;17.70;99.90;;;18.56;100.00;98378.41;5047871;28;20441;-78
2021/07/16 05:38:53;;;;;;;22.97;15.07;;;17.70;99.90;;;18.58;100.00;98375.50;5047952;28;20452;-80
2021/07/16 05:41:24;;;;;;;28.07;15.70;;;17.70;99.90;;;18.57;100.00;98382.66;5049284;28;20635;-80
2021/07/16 05:43:54;;;;;;;26.93;16.50;;;17.80;99.90;;;18.58;100.00;98383.47;5049611;28;20763;-80
2021/07/16 05:46:23;;;;;;;25.10;15.77;;;17.70;99.90;;;18.56;100.00;98378.41;5049181;28;20484;-80
2021/07/16 05:48:53;;;;;;;23.00;15.87;;;17.70;99.90;;;18.58;100.00;98388.75;5049499;28;20524;-80
2021/07/16 05:51:23;;;;;;;26.30;15.13;;;17.80;99.90;;;18.58;100.00;98400.16;5046554;28;20503;-80
2021/07/16 05:53:53;;;;;;;25.20;15.80;;;17.80;99.90;;;18.57;100.00;98395.88;5040025;28;20788;-80
2021/07/16 05:56:23;;;;;;;27.70;15.90;;;17.80;99.90;;;18.56;100.00;98399.59;5045411;28;20572;-80
2021/07/16 05:58:54;;;;;;;20.10;13.47;;;17.70;99.90;;;18.58;100.00;98402.00;5048691;28;20456;-80
2021/07/16 06:01:23;;;;;;;25.80;14.47;;;17.80;99.90;;;18.57;100.00;98403.84;5046131;28;20537;-80
2021/07/16 06:03:53;;;;;;;23.40;14.47;;;17.90;99.90;;;18.52;100.00;98403.72;5046238;28;20455;-80
2021/07/16 06:06:23;;;;;;;21.80;14.07;;;17.90;99.90;;;18.58;100.00;98404.66;5041454;28;20445;-80
2021/07/16 06:08:53;;;;;;;28.67;14.50;;;17.90;99.90;;;18.62;100.00;98407.66;5049221;28;20455;-80
2021/07/16 06:11:25;;;;;;;22.60;14.13;;;17.90;99.90;;;18.56;100.00;98396.94;5047112;28;21141;-80
2021/07/16 06:13:55;;;;;;;26.70;13.10;;;17.80;99.90;;;18.58;100.00;98402.81;5048324;28;20531;-80
2021/07/16 06:16:26;;;;;;;26.77;14.80;;;17.80;99.90;;;18.60;100.00;98405.25;5048637;28;20441;-80
2021/07/16 06:18:55;;;;;;;33.10;14.10;;;17.80;99.90;;;18.59;100.00;98406.28;5049032;28;20483;-80
2021/07/16 06:21:25;;;;;;;25.43;12.90;;;17.90;99.90;;;18.60;100.00;98411.31;5048700;28;20461;-80
2021/07/16 06:23:54;;;;;;;35.43;13.97;;;18.00;99.90;;;18.60;100.00;98413.97;5049257;28;20441;-80
2021/07/16 06:26:24;;;;;;;23.17;12.70;;;17.90;99.90;;;18.63;100.00;98422.50;5045869;28;20463;-80
2021/07/16 06:28:55;;;;;;;18.07;12.70;;;17.90;99.90;;;18.65;100.00;98418.59;5044424;28;20450;-80
2021/07/16 06:31:24;;;;;;;22.53;12.87;;;17.80;99.90;;;18.69;100.00;98427.69;5049740;28;20495;-80
2021/07/16 06:33:53;;;;;;;24.37;13.53;;;17.90;99.90;;;18.71;100.00;98427.50;5049016;28;20823;-80
2021/07/16 06:36:23;;;;;;;21.97;14.10;;;17.90;99.90;;;18.74;100.00;98424.38;5045350;28;20442;-80
2021/07/16 06:38:54;;;;;;;27.27;14.27;;;17.90;99.90;;;18.75;100.00;98428.63;5038901;28;20531;-80
2021/07/16 06:41:26;;;;;;;21.83;14.70;;;18.00;99.90;;;18.76;100.00;98431.06;5045731;28;20503;-80
2021/07/16 06:43:58;;;;;;;21.57;12.90;;;18.00;99.90;;;18.81;100.00;98427.72;5037546;28;20445;-80
2021/07/16 06:46:29;;;;;;;24.07;13.80;;;18.00;99.90;;;18.80;100.00;98431.41;5053186;28;20567;-80
2021/07/16 06:49:00;;;;;;;24.17;14.13;;;18.00;99.90;;;18.78;100.00;98434.25;5046040;28;20513;-80
2021/07/16 06:51:33;;;;;;;19.77;13.37;;;18.00;99.90;;;18.78;100.00;98438.78;5054244;28;20493;-80
2021/07/16 06:54:05;;;;;;;18.67;12.90;;;17.90;99.90;;;18.80;100.00;98444.66;5044595;28;20454;-80
2021/07/16 06:56:37;;;;;;;21.10;13.73;;;18.00;99.90;;;18.84;100.00;98453.75;5056487;28;20446;-80
2021/07/16 06:59:12;;;;;;;24.97;14.40;;;18.10;99.90;;;18.91;100.00;98442.00;5051625;28;20515;-81
2021/07/16 07:01:46;;;;;;;21.50;13.60;;;18.10;99.90;;;18.96;100.00;98446.59;5047247;28;20455;-80
2021/07/16 07:04:18;;;;;;;22.80;14.70;;;18.20;99.90;;;18.98;100.00;98445.34;5049136;28;20464;-81
2021/07/16 07:06:49;;;;;;;29.57;13.53;;;18.20;99.90;;;19.04;100.00;98448.91;5042617;28;20805;-80
2021/07/16 07:09:20;;;;;;;21.43;13.27;;;18.30;99.90;;;19.04;100.00;98457.69;5045925;28;20892;-80
2021/07/16 07:11:52;;;;;;;25.70;13.30;;;18.30;99.90;;;19.12;100.00;98459.19;5048007;28;20496;-80
2021/07/16 07:14:24;;;;;;;23.97;13.90;;;18.40;99.90;;;19.12;100.00;98451.22;5048537;28;20503;-80
2021/07/16 07:16:54;;;;;;;27.17;13.13;;;18.40;99.90;;;19.13;100.00;98452.81;5048595;28;20487;-80
2021/07/16 07:19:26;;;;;;;23.70;13.57;;;18.40;99.90;;;19.16;100.00;98455.00;5050805;28;20532;-80
2021/07/16 07:21:59;;;;;;;24.13;15.13;;;18.40;99.90;;;19.18;100.00;98466.22;5049232;28;20483;-81
2021/07/16 07:24:31;;;;;;;19.83;13.07;;;18.40;99.90;;;19.18;100.00;98468.84;5046955;28;20440;-80
2021/07/16 07:27:02;;;;;;;15.47;10.83;;;18.50;99.90;;;19.19;100.00;98464.38;5050972;28;20885;-80
2021/07/16 07:29:34;;;;;;;18.97;11.00;;;18.50;99.90;;;19.22;100.00;98467.34;5044826;28;20504;-80
2021/07/16 07:32:10;;;;;;;17.20;10.50;;;18.50;99.90;;;19.29;100.00;98468.03;5052398;28;20499;-81
2021/07/16 07:34:40;;;;;;;15.47;9.87;;;18.70;99.90;;;19.25;100.00;98464.25;5049667;28;20469;-80
2021/07/16 07:37:12;;;;;;;16.43;10.20;;;18.60;99.90;;;19.19;100.00;98467.00;5051280;28;20907;-80
2021/07/16 07:39:43;;;;;;;18.30;10.10;;;18.50;99.90;;;19.23;100.00;98481.44;5044200;28;20465;-80
2021/07/16 07:42:17;;;;;;;13.30;8.83;;;18.50;99.90;;;19.19;100.00;98478.44;5052840;28;21018;-80
2021/07/16 07:44:49;;;;;;;16.00;9.60;;;18.40;99.90;;;19.21;100.00;98476.34;5051170;28;20472;-80
2021/07/16 07:47:20;;;;;;;15.20;9.07;;;18.50;99.90;;;19.22;100.00;98480.63;5042648;28;20492;-80
2021/07/16 07:49:53;;;;;;;15.23;9.00;;;18.50;99.90;;;19.27;100.00;98480.72;5044598;28;20461;-80
2021/07/16 07:52:26;;;;;;;14.40;9.27;;;18.50;99.90;;;19.33;100.00;98484.31;5049114;28;20569;-80
2021/07/16 07:54:57;;;;;;;12.70;9.13;;;18.50;99.90;;;19.29;100.00;98483.97;5047181;28;20457;-80
2021/07/16 07:57:29;;;;;;;13.47;10.10;;;18.40;99.90;;;19.31;100.00;98481.88;5053000;28;20527;-80
2021/07/16 08:00:01;;;;;;;14.57;9.40;;;18.50;99.90;;;19.32;100.00;98483.50;5066356;28;20971;-81
2021/07/16 08:02:35;;;;;;;17.37;10.10;;;18.50;99.90;;;19.30;100.00;98488.19;5051604;28;20451;-80
2021/07/16 08:05:07;;;;;;;16.23;9.67;;;18.40;99.90;;;19.35;100.00;98487.50;5049432;28;20461;-81
2021/07/16 08:07:39;;;;;;;19.50;10.17;;;18.40;99.90;;;19.33;100.00;98490.38;5047764;28;20458;-80
2021/07/16 08:10:15;;;;;;;15.33;9.30;;;18.50;99.90;;;19.32;100.00;98482.69;5041103;28;20450;-80
2021/07/16 08:12:47;;;;;;;13.60;9.50;;;18.50;99.90;;;19.30;100.00;98487.44;5050896;28;20476;-80
2021/07/16 08:15:23;;;;;;;12.47;8.87;;;18.40;99.90;;;19.28;100.00;98492.94;5049861;28;20525;-80
2021/07/16 08:17:54;;;;;;;12.20;8.80;;;18.50;99.90;;;19.31;100.00;98497.78;5044878;28;20627;-80
2021/07/16 08:20:24;;;;;;;12.97;9.20;;;18.50;99.90;;;19.24;100.00;98496.28;5042098;28;20450;-80
2021/07/16 08:22:55;;;;;;;17.97;8.67;;;18.60;99.90;;;19.21;100.00;98494.91;5044871;28;20970;-80
2021/07/16 08:25:26;;;;;;;12.47;8.37;;;18.40;99.90;;;19.21;100.00;98497.56;5049917;28;20469;-80
2021/07/16 08:28:00;;;;;;;17.63;8.17;;;18.50;99.90;;;19.21;100.00;98507.34;5046643;28;20473;-81
2021/07/16 08:30:35;;;;;;;16.03;9.50;;;18.50;99.90;;;19.22;100.00;98509.78;5050697;28;20454;-81
2021/07/16 08:33:06;;;;;;;13.83;10.00;;;18.50;99.90;;;19.18;100.00;98513.94;5050652;28;21022;-80
2021/07/16 08:35:36;;;;;;;12.60;8.57;;;18.50;99.90;;;19.13;100.00;98519.09;5050258;28;20503;-80
2021/07/16 08:38:06;;;;;;;18.30;8.23;;;18.40;99.90;;;19.17;100.00;98519.47;5050656;28;20815;-80
2021/07/16 08:40:36;;;;;;;12.13;9.17;;;18.40;99.90;;;19.04;100.00;98518.66;5046777;28;20518;-80
2021/07/16 08:43:08;;;;;;;11.00;8.47;;;18.30;99.90;;;18.99;100.00;98523.00;5048858;28;20512;-80
2021/07/16 08:45:41;;;;;;;13.03;8.80;;;18.30;99.90;;;18.91;100.00;98518.88;5043128;28;20522;-80
2021/07/16 08:48:16;;;;;;;13.37;9.10;;;18.20;99.90;;;18.93;100.00;98521.28;5046794;28;20499;-80
2021/07/16 08:50:49;;;;;;;15.70;9.07;;;18.20;99.90;;;18.95;100.00;98529.84;5046276;28;20490;-80
2021/07/16 08:53:21;;;;;;;11.30;8.40;;;18.20;99.90;;;18.98;100.00;98530.19;5050824;28;20456;-80
2021/07/16 08:55:53;;;;;;;15.57;9.53;;;18.20;99.90;;;18.99;100.00;98525.66;5047188;28;21097;-80
2021/07/16 08:58:25;;;;;;;10.90;8.90;;;18.20;99.90;;;18.91;100.00;98534.78;5051455;28;20927;-80
2021/07/16 09:00:58;;;;;;;13.20;8.67;;;18.10;99.90;;;18.91;100.00;98534.78;5051149;28;20441;-80
2021/07/16 09:03:29;;;;;;;17.70;9.23;;;18.10;99.90;;;18.92;100.00;98536.38;5049856;28;20499;-80
2021/07/16 09:06:01;;;;;;;11.70;8.97;;;18.10;99.90;;;18.98;100.00;98532.03;5050768;28;20479;-80
2021/07/16 09:08:31;;;;;;;18.50;9.10;;;18.20;99.90;;;19.05;100.00;98530.84;5046384;28;20453;-80
2021/07/16 09:11:04;;;;;;;13.23;9.30;;;18.30;99.90;;;19.10;100.00;98538.13;5052002;28;20573;-80
2021/07/16 09:13:35;;;;;;;12.30;8.27;;;18.40;99.90;;;19.11;100.00;98537.09;5048591;28;20508;-80
2021/07/16 09:16:10;;;;;;;13.40;9.37;;;18.30;99.90;;;19.17;100.00;98538.00;5044296;28;20450;-80
2021/07/16 09:18:49;;;;;;;14.33;9.40;;;18.40;99.90;;;19.24;100.00;98533.41;5047653;28;20908;-80
2021/07/16 09:21:19;;;;;;;12.90;8.87;;;18.40;99.90;;;19.26;100.00;98544.63;5050108;28;20473;-81
2021/07/16 09:23:54;;;;;;;14.70;8.37;;;18.50;99.90;;;19.27;100.00;98538.25;5047778;28;20449;-80
2021/07/16 09:26:32;;;;;;;14.60;9.30;;;18.50;99.90;;;19.30;100.00;98540.47;5045007;28;20445;-80
2021/07/16 09:29:05;;;;;;;11.17;7.93;;;18.70;99.90;;;19.28;100.00;98540.69;5046821;28;20448;-80
2021/07/16 09:31:41;;;;;;;12.50;8.37;;;18.60;99.90;;;19.29;100.00;98537.00;5046438;28;20982;-80
2021/07/16 09:34:19;;;;;;;13.37;9.60;;;18.60;99.90;;;19.28;100.00;98551.28;5045704;28;20465;-80
2021/07/16 09:36:50;;;;;;;16.10;10.53;;;18.60;99.90;;;19.17;100.00;98538.81;5046961;28;20463;-80
2021/07/16 09:39:25;;;;;;;14.80;9.50;;;18.50;99.90;;;19.19;100.00;98541.25;5050665;28;20458;-80
2021/07/16 09:41:58;;;;;;;11.30;8.87;;;18.50;99.90;;;19.19;100.00;98531.47;5045756;28;20568;-80
2021/07/16 09:44:32;;;;;;;15.07;10.50;;;18.60;99.90;;;19.24;100.00;98538.72;5044793;28;20452;-81
2021/07/16 09:47:14;;;;;;;11.33;9.23;;;18.50;99.90;;;19.17;100.00;98540.66;5042043;28;20516;-80
2021/07/16 09:49:50;;;;;;;13.33;9.73;;;18.50;99.90;;;19.13;100.00;98542.16;5048858;28;20532;-81
2021/07/16 09:52:22;;;;;;;21.20;10.00;;;18.40;99.90;;;19.21;100.00;98539.19;5039714;28;20542;-81
2021/07/16 09:55:13;;;;;;;13.80;10.33;;;18.60;99.90;;;19.29;100.00;98536.19;5038458;28;20474;-81
2021/07/16 09:57:48;;;;;;;14.53;10.07;;;18.70;99.90;;;19.26;100.00;98534.81;5046784;28;20540;-82
2021/07/16 10:00:24;;;;;;;19.70;10.57;;;18.70;99.90;;;19.30;100.00;98537.81;5045465;28;20478;-81
2021/07/16 10:02:59;;;;;;;14.83;10.30;;;18.60;99.90;;;19.39;100.00;98537.22;5048043;28;20502;-81
2021/07/16 10:05:36;;;;;;;14.37;10.03;;;18.70;99.90;;;19.46;100.00;98532.66;5049157;28;20871;-81
2021/07/16 10:08:09;;;;;;;13.00;9.83;;;18.80;99.90;;;19.54;100.00;98540.22;5046502;28;20472;-81
2021/07/16 10:10:42;;;;;;;16.93;10.83;;;18.80;99.90;;;19.63;100.00;98539.88;5047293;28;20460;-81
2021/07/16 10:13:14;;;;;;;16.23;10.07;;;18.90;99.90;;;19.63;100.00;98548.66;5043899;28;20542;-80
2021/07/16 10:15:47;;;;;;;14.23;9.63;;;18.90;99.90;;;19.63;100.00;98547.84;5047075;28;20939;-81
2021/07/16 10:18:21;;;;;;;17.40;11.30;;;19.00;99.90;;;19.62;100.00;98551.53;5049419;28;20506;-81